Time;durP1;ratioP1;P1;durP2;ratioP2;P2;SDS_P1;SDS_P2;PMS_P1;PMS_P2;Temp;Humidity;BMP_temperature;BMP_pressure;BME280_temperature;BME280_humidity;BME280_pressure;Samples;Min_cycle;Max_cycle;Signal;HPM_P1;HPM_P2
2022/06/10 00:01:55;;;;;;;8.13;6.67;;;;;;;18.73;93.40;100220.56;2755711;82;21091;-82
2022/06/10 00:06:00;;;;;;;7.58;6.67;;;;;;;18.58;94.32;100226.73;2851818;82;21073;-82
2022/06/10 00:10:01;;;;;;;8.43;5.83;;;;;;;18.57;94.21;100235.83;2860028;81;20990;-82
2022/06/10 00:14:02;;;;;;;11.05;7.12;;;;;;;18.48;94.93;100245.00;2851940;81;21064;-82
2022/06/10 00:18:04;;;;;;;12.60;7.15;;;;;;;18.35;95.53;100247.76;2830426;82;21065;-82
2022/06/10 00:22:05;;;;;;;9.63;6.78;;;;;;;18.32;96.09;100246.77;2850739;82;21010;-82
2022/06/10 00:26:07;;;;;;;10.28;7.92;;;;;;;18.24;96.67;100257.08;2840238;81;21062;-82
2022/06/10 00:30:10;;;;;;;11.70;7.90;;;;;;;18.21;96.77;100259.28;2852524;81;21033;-81
2022/06/10 00:34:12;;;;;;;11.35;8.43;;;;;;;18.22;96.80;100256.91;2802179;84;21014;-82
2022/06/10 00:38:13;;;;;;;10.63;8.13;;;;;;;18.22;96.61;100256.42;2862607;81;21065;-82
2022/06/10 00:42:15;;;;;;;17.80;7.65;;;;;;;18.19;96.37;100254.09;2824683;81;21063;-82
2022/06/10 00:46:28;;;;;;;12.50;8.95;;;;;;;18.28;95.91;100261.61;2848983;82;22095;-82
2022/06/10 00:50:31;;;;;;;9.58;7.12;;;;;;;18.29;95.63;100263.29;2814889;82;21026;-82
2022/06/10 00:54:39;;;;;;;10.58;8.13;;;;;;;18.33;95.13;100274.03;2852838;82;20999;-82
2022/06/10 00:59:01;;;;;;;15.90;8.73;;;;;;;18.39;94.65;100270.61;2803507;81;21065;-82
2022/06/10 01:03:03;;;;;;;8.80;7.90;;;;;;;18.40;93.99;100276.33;2817899;83;21034;-81
2022/06/10 01:07:05;;;;;;;11.53;7.78;;;;;;;18.48;93.75;100274.63;2827156;82;21011;-82
2022/06/10 01:11:54;;;;;;;8.05;7.25;;;;;;;18.44;94.00;100281.35;2825525;82;21006;-82
2022/06/10 01:16:20;;;;;;;9.68;7.10;;;;;;;18.44;94.07;100283.55;2795882;82;21062;-83
2022/06/10 01:20:27;;;;;;;11.25;8.10;;;;;;;18.45;93.90;100287.07;2847430;82;21050;-84
2022/06/10 01:24:53;;;;;;;7.87;6.90;;;;;;;18.39;93.98;100301.58;2784248;83;21012;-84
2022/06/10 01:28:58;;;;;;;;;;;;;;;18.38;94.07;100306.64;2785855;84;21107;-84
2022/06/10 01:33:30;;;;;;;8.48;6.85;;;;;;;18.38;94.39;100316.06;2787816;84;20148;-85
2022/06/10 01:37:43;;;;;;;11.35;8.13;;;;;;;18.35;94.42;100316.42;2795525;83;21125;-84
2022/06/10 01:41:58;;;;;;;13.78;6.95;;;;;;;18.31;94.38;100325.88;2768677;83;21094;-84
2022/06/10 01:46:32;;;;;;;12.40;7.35;;;;;;;18.21;95.07;100318.50;2761437;85;21095;-85
2022/06/10 01:51:05;;;;;;;10.43;7.72;;;;;;;18.08;95.71;100329.83;2774292;83;21035;-84
2022/06/10 01:55:24;;;;;;;11.00;8.28;;;;;;;17.99;96.13;100327.64;2793895;83;21000;-84
2022/06/10 01:59:49;;;;;;;12.18;9.38;;;;;;;18.00;96.13;100342.78;2788989;84;21019;-84
2022/06/10 02:03:55;;;;;;;13.20;9.28;;;;;;;17.99;96.09;100350.03;2776619;82;21063;-84
2022/06/10 02:08:05;;;;;;;9.70;7.50;;;;;;;18.03;95.94;100342.98;2840142;82;21419;-84
2022/06/10 02:12:14;;;;;;;15.28;9.10;;;;;;;18.10;95.46;100355.58;2825068;83;21033;-85
2022/06/10 02:16:19;;;;;;;14.87;7.92;;;;;;;17.96;96.16;100354.91;2835228;82;21041;-82
2022/06/10 02:20:25;;;;;;;13.13;8.88;;;;;;;17.94;95.30;100340.79;2826127;82;21101;-84
2022/06/10 02:24:43;;;;;;;10.72;8.20;;;;;;;17.94;95.30;100340.79;2810446;81;20990;-84
2022/06/10 02:28:53;;;;;;;10.78;8.55;;;;;;;18.03;95.45;100363.98;2855646;81;21006;-84
2022/06/10 02:32:57;;;;;;;10.68;7.92;;;;;;;18.04;95.37;100367.53;2836217;82;21686;-84
2022/06/10 02:37:10;;;;;;;11.60;8.58;;;;;;;17.94;95.86;100375.77;2844890;81;21029;-83
2022/06/10 02:41:38;;;;;;;14.35;10.55;;;;;;;17.92;96.13;100384.00;2844705;81;21072;-84
2022/06/10 02:45:57;;;;;;;13.78;9.53;;;;;;;17.94;96.09;100387.88;2833519;81;21172;-83
2022/06/10 02:49:59;;;;;;;10.08;8.45;;;;;;;17.94;96.12;100397.30;2851565;81;21052;-84
2022/06/10 02:54:05;;;;;;;11.08;9.95;;;;;;;17.92;96.12;100394.77;2864756;81;21029;-84
2022/06/10 03:03:02;;;;;;;13.83;8.80;;;;;;;17.97;95.91;100403.16;2883704;81;21026;-84
2022/06/10 03:07:56;;;;;;;13.30;8.73;;;;;;;17.95;96.00;100412.44;2874885;82;21029;-84
2022/06/10 03:12:41;;;;;;;10.82;7.15;;;;;;;17.97;95.98;100416.61;2836958;81;21041;-83
2022/06/10 03:17:19;;;;;;;10.85;9.75;;;;;;;17.98;95.90;100420.16;2887198;81;21049;-84
2022/06/10 03:21:58;;;;;;;10.10;9.05;;;;;;;17.97;96.16;100429.25;2842735;81;21017;-83
2022/06/10 03:26:08;;;;;;;15.32;9.08;;;;;;;17.90;96.64;100425.57;2869764;81;21017;-83
2022/06/10 03:30:17;;;;;;;11.40;8.05;;;;;;;17.81;97.29;100438.19;2873805;81;21070;-84
2022/06/10 03:34:36;;;;;;;13.62;9.10;;;;;;;17.78;97.93;100443.88;2919394;81;21026;-84
2022/06/10 03:38:45;;;;;;;10.15;9.03;;;;;;;17.73;98.26;100448.94;2880080;81;21679;-83
2022/06/10 03:42:52;;;;;;;14.58;9.38;;;;;;;17.75;98.50;100450.47;2852244;81;21049;-83
2022/06/10 03:46:55;;;;;;;10.68;8.33;;;;;;;17.81;98.14;100453.81;2848888;81;21067;-83
2022/06/10 03:50:56;;;;;;;10.10;8.43;;;;;;;17.87;98.03;100468.94;2902214;80;21002;-83
2022/06/10 03:54:58;;;;;;;8.00;7.22;;;;;;;17.97;97.42;100477.69;2898282;81;21049;-84
2022/06/10 03:58:59;;;;;;;7.22;6.55;;;;;;;18.03;97.00;100480.24;2845251;80;21071;-83
2022/06/10 04:03:00;;;;;;;8.35;7.25;;;;;;;18.06;96.29;100486.10;2880425;81;21400;-84
2022/06/10 04:07:01;;;;;;;12.13;8.15;;;;;;;18.13;95.85;100491.16;2898164;80;20994;-84
2022/06/10 04:11:02;;;;;;;8.90;7.12;;;;;;;18.20;95.56;100495.85;2883627;81;20998;-83
2022/06/10 04:15:07;;;;;;;10.85;7.15;;;;;;;18.37;94.83;100502.89;2906440;80;21033;-84
2022/06/10 04:19:08;;;;;;;7.70;6.28;;;;;;;18.45;94.27;100506.06;2898109;81;21069;-83
2022/06/10 04:23:10;;;;;;;9.50;6.78;;;;;;;18.59;93.63;100513.11;2843425;80;21033;-83
2022/06/10 04:27:11;;;;;;;8.70;6.35;;;;;;;18.66;92.88;100516.78;2907242;80;21046;-83
2022/06/10 04:31:13;;;;;;;8.25;6.90;;;;;;;18.76;92.88;100524.14;2907034;81;21018;-93
2022/06/10 04:35:14;;;;;;;7.37;6.65;;;;;;;18.90;92.79;100520.39;2859981;81;21102;-84
2022/06/10 04:39:16;;;;;;;8.80;7.53;;;;;;;18.95;91.91;100536.38;2880836;81;21041;-83
2022/06/10 04:43:18;;;;;;;10.05;6.55;;;;;;;19.10;91.58;100541.07;2879609;80;21054;-83
2022/06/10 04:47:19;;;;;;;11.68;5.62;;;;;;;19.20;90.99;100549.77;2880541;80;21195;-83
2022/06/10 04:51:20;;;;;;;12.50;6.30;;;;;;;19.34;89.82;100554.09;2906972;80;21058;-83
2022/06/10 04:55:23;;;;;;;5.53;5.00;;;;;;;19.41;89.12;100554.55;2842156;81;21029;-83
2022/06/10 04:59:24;;;;;;;5.60;4.78;;;;;;;19.56;88.93;100557.84;2862331;80;21069;-83
2022/06/10 05:03:25;;;;;;;5.95;4.83;;;;;;;19.62;87.99;100572.45;2883710;80;21051;-83
2022/06/10 05:07:26;;;;;;;5.83;5.25;;;;;;;19.63;87.10;100576.83;2905767;80;21054;-83
2022/06/10 05:11:27;;;;;;;4.97;4.53;;;;;;;19.71;86.16;100584.89;2876609;81;21033;-82
2022/06/10 05:15:29;;;;;;;5.33;4.67;;;;;;;19.80;86.61;100587.85;2906257;80;21041;-82
2022/06/10 05:19:31;;;;;;;5.55;5.00;;;;;;;19.84;84.78;100599.96;2898594;80;21011;-83
2022/06/10 05:23:32;;;;;;;5.37;4.67;;;;;;;19.82;84.49;100602.53;2884809;80;21018;-83
2022/06/10 05:27:33;;;;;;;6.00;4.90;;;;;;;19.82;84.96;100599.30;2882032;80;20994;-82
2022/06/10 05:31:34;;;;;;;5.83;4.97;;;;;;;19.93;84.66;100593.20;2891864;80;21029;-83
2022/06/10 05:35:37;;;;;;;8.85;4.70;;;;;;;20.02;84.73;100587.23;2858502;81;21057;-82
2022/06/10 05:39:39;;;;;;;6.87;4.35;;;;;;;20.11;83.50;100600.98;2873868;81;29577;-83
2022/06/10 05:43:40;;;;;;;4.85;4.45;;;;;;;20.24;83.35;100599.02;2900546;80;21084;-83
2022/06/10 05:47:42;;;;;;;4.42;3.95;;;;;;;20.34;84.21;100608.22;2903793;81;21090;-83
2022/06/10 05:51:43;;;;;;;6.92;5.08;;;;;;;20.54;83.55;100609.41;2884349;81;21030;-83
2022/06/10 05:55:44;;;;;;;8.98;4.90;;;;;;;20.75;83.72;100610.55;2906317;80;21029;-83
2022/06/10 05:59:49;;;;;;;6.80;4.70;;;;;;;20.87;82.04;100620.42;2852756;81;21038;-83
2022/06/10 06:03:50;;;;;;;7.85;5.72;;;;;;;20.96;81.59;100628.75;2910309;81;21065;-83
2022/06/10 06:07:52;;;;;;;5.17;4.67;;;;;;;21.04;80.84;100628.35;2891253;81;21037;-83
2022/06/10 06:11:56;;;;;;;6.33;5.72;;;;;;;21.00;80.03;100634.64;2890363;80;21742;-83
2022/06/10 06:15:56;;;;;;;4.53;3.65;;;;;;;20.97;82.00;100635.84;2873505;80;21005;-83
2022/06/10 06:19:57;;;;;;;8.38;5.15;;;;;;;20.88;81.34;100641.02;2844214;81;21041;-82
2022/06/10 06:23:59;;;;;;;5.08;4.58;;;;;;;20.90;81.70;100650.28;2893953;80;21053;-83
2022/06/10 06:28:00;;;;;;;5.70;5.10;;;;;;;20.84;82.04;100651.88;2900385;81;21085;-83
2022/06/10 06:32:03;;;;;;;6.80;4.78;;;;;;;20.92;81.00;100653.63;2879155;80;21069;-83
2022/06/10 06:36:05;;;;;;;6.62;5.03;;;;;;;21.11;81.35;100653.61;2897250;81;21084;-83
2022/06/10 06:40:09;;;;;;;6.33;5.70;;;;;;;21.44;80.35;100664.55;2868415;81;21029;-83
2022/06/10 06:44:11;;;;;;;4.30;3.87;;;;;;;21.86;78.94;100668.94;2877491;81;20978;-83
2022/06/10 06:48:13;;;;;;;7.00;4.65;;;;;;;22.21;77.81;100665.86;2910905;80;21041;-83
2022/06/10 06:52:15;;;;;;;7.80;5.53;;;;;;;22.59;77.40;100662.03;2915246;81;21049;-84
2022/06/10 06:56:16;;;;;;;5.47;4.45;;;;;;;22.77;75.36;100671.56;2887293;81;21041;-82
2022/06/10 07:00:18;;;;;;;6.42;4.55;;;;;;;22.78;75.09;100680.02;2890180;81;21041;-83
2022/06/10 07:04:20;;;;;;;5.30;4.00;;;;;;;22.79;74.83;100681.69;2902078;81;21100;-82
2022/06/10 07:08:21;;;;;;;5.20;4.70;;;;;;;22.67;73.01;100675.47;2908313;80;21078;-82
2022/06/10 07:12:23;;;;;;;8.60;3.90;;;;;;;22.91;74.21;100684.19;2883086;80;21010;-83
2022/06/10 07:16:24;;;;;;;6.53;3.87;;;;;;;23.20;68.82;100679.58;2869820;80;21093;-83
2022/06/10 07:20:33;;;;;;;3.90;3.50;;;;;;;23.41;68.99;100691.91;2848883;81;21112;-83
2022/06/10 07:24:34;;;;;;;4.30;3.50;;;;;;;23.38;68.04;100697.22;2906996;80;21043;-82
2022/06/10 07:28:36;;;;;;;3.40;2.67;;;;;;;23.20;67.45;100691.80;2893865;81;21084;-83
2022/06/10 07:32:37;;;;;;;3.95;2.72;;;;;;;23.04;68.18;100697.53;2910353;81;21017;-82
2022/06/10 07:36:40;;;;;;;2.47;1.98;;;;;;;22.90;66.64;100708.27;2891055;80;21023;-83
2022/06/10 07:45:05;;;;;;;3.95;2.95;;;;;;;22.96;67.04;100710.19;2905988;80;21097;-83
2022/06/10 07:49:06;;;;;;;3.35;3.02;;;;;;;23.39;66.67;100702.99;2873790;81;21104;-82
2022/06/10 07:53:09;;;;;;;4.78;2.05;;;;;;;24.00;65.91;100703.20;2862673;81;21075;-82
2022/06/10 07:57:11;;;;;;;2.60;2.40;;;;;;;24.46;60.67;100692.95;2847731;81;21073;-83
2022/06/10 08:01:12;;;;;;;2.52;2.33;;;;;;;24.70;61.83;100703.43;2877087;82;21038;-83
2022/06/10 08:05:17;;;;;;;4.53;2.60;;;;;;;24.92;59.16;100711.70;2860843;81;21018;-82
2022/06/10 08:09:21;;;;;;;2.25;2.05;;;;;;;25.24;58.73;100703.70;2887256;81;20986;-83
2022/06/10 08:13:22;;;;;;;3.35;2.02;;;;;;;25.17;57.38;100697.45;2863482;82;21014;-83
2022/06/10 08:17:24;;;;;;;3.50;2.12;;;;;;;25.46;57.78;100694.44;2840936;81;21058;-83
2022/06/10 08:25:45;;;;;;;2.22;1.95;;;;;;;25.37;55.02;100696.02;2846961;82;21073;-82
2022/06/10 08:29:46;;;;;;;4.20;2.17;;;;;;;25.42;56.74;100692.66;2845642;81;21572;-83
2022/06/10 08:33:48;;;;;;;2.58;1.55;;;;;;;25.46;55.97;100695.26;2840356;83;21498;-82
2022/06/10 08:37:49;;;;;;;2.17;1.77;;;;;;;25.42;56.12;100696.75;2808543;83;21030;-82
2022/06/10 08:42:10;;;;;;;3.85;2.35;;;;;;;25.11;56.04;100703.73;2777334;83;21427;-82
2022/06/10 08:46:23;;;;;;;2.87;1.75;;;;;;;25.27;54.18;100699.73;2836216;83;21030;-82
2022/06/10 08:50:54;;;;;;;2.47;2.08;;;;;;;25.19;54.99;100696.71;2855563;81;21220;-83
2022/06/10 08:55:07;;;;;;;2.92;2.47;;;;;;;25.18;53.94;100702.36;2813073;82;20991;-83
2022/06/10 08:59:44;;;;;;;4.45;1.20;;;;;;;25.05;53.66;100705.41;2855391;81;21180;-83
2022/06/10 09:03:51;;;;;;;2.42;2.20;;;;;;;25.28;54.97;100702.77;2823945;82;21044;-83
2022/06/10 09:07:58;;;;;;;2.25;1.70;;;;;;;25.57;54.71;100707.94;2842063;82;21049;-82
2022/06/10 09:12:24;;;;;;;4.83;1.87;;;;;;;25.62;52.94;100716.30;2890083;80;21052;-82
2022/06/10 09:16:42;;;;;;;3.30;1.50;;;;;;;25.56;54.95;100715.80;2900786;81;21053;-82
2022/06/10 09:20:49;;;;;;;2.37;1.30;;;;;;;25.46;52.59;100721.13;2905685;80;21022;-83
2022/06/10 09:25:17;;;;;;;4.20;1.02;;;;;;;25.22;53.10;100722.14;2911363;81;21069;-83
2022/06/10 09:29:18;;;;;;;1.55;1.25;;;;;;;24.91;53.08;100731.80;2913791;80;21100;-82
2022/06/10 09:33:39;;;;;;;1.15;1.12;;;;;;;24.93;52.13;100737.86;2890507;81;21104;-83
2022/06/10 09:37:49;;;;;;;1.55;0.82;;;;;;;25.13;52.36;100738.37;2890496;81;21052;-83
2022/06/10 09:42:02;;;;;;;1.30;1.20;;;;;;;25.28;51.34;100741.38;2906258;80;21041;-83
2022/06/10 09:46:17;;;;;;;1.67;1.05;;;;;;;25.49;52.03;100736.24;2906632;80;20997;-82
2022/06/10 09:50:57;;;;;;;1.42;1.02;;;;;;;25.45;51.09;100733.07;2900378;81;21014;-83
2022/06/10 09:55:34;;;;;;;2.17;0.78;;;;;;;25.49;51.88;100724.81;2827944;81;21025;-82
2022/06/10 09:59:49;;;;;;;5.30;1.10;;;;;;;25.64;50.95;100730.53;2862970;80;20990;-83
2022/06/10 10:04:27;;;;;;;3.02;0.80;;;;;;;25.77;52.12;100729.13;2901816;80;21584;-83
2022/06/10 10:08:49;;;;;;;1.32;0.78;;;;;;;25.93;50.43;100729.66;2876456;81;21034;-83
2022/06/10 10:13:36;;;;;;;1.30;1.20;;;;;;;25.97;49.29;100725.98;2897718;80;21014;-83
2022/06/10 10:18:28;;;;;;;0.98;0.68;;;;;;;25.88;51.00;100726.24;2849725;82;21050;-83
2022/06/10 10:23:15;;;;;;;1.20;0.78;;;;;;;25.56;48.66;100722.06;2813020;83;21094;-83
2022/06/10 10:27:24;;;;;;;1.32;0.68;;;;;;;25.70;48.27;100726.93;2821720;82;21080;-83
2022/06/10 10:31:30;;;;;;;2.60;0.95;;;;;;;26.01;49.94;100717.66;2805712;83;21042;-83
2022/06/10 10:35:42;;;;;;;2.58;1.27;;;;;;;26.10;49.49;100721.28;2825569;83;21174;-83
2022/06/10 10:39:54;;;;;;;2.20;0.50;;;;;;;26.08;48.58;100716.58;2815295;82;21062;-83
2022/06/10 10:44:03;;;;;;;0.95;0.53;;;;;;;26.13;46.97;100736.88;2837808;82;21148;-82
2022/06/10 10:48:21;;;;;;;1.07;0.80;;;;;;;26.24;47.00;100723.97;2838784;82;21057;-83
2022/06/10 10:52:30;;;;;;;1.65;0.70;;;;;;;26.25;47.74;100712.00;2805649;82;21104;-82
2022/06/10 10:56:36;;;;;;;0.98;0.50;;;;;;;26.34;45.75;100721.61;2887150;81;21025;-82
2022/06/10 11:00:42;;;;;;;0.88;0.47;;;;;;;26.32;46.03;100723.69;2889645;80;21034;-82
2022/06/10 11:04:43;;;;;;;4.20;0.93;;;;;;;26.37;45.27;100719.80;2892042;81;20998;-83
2022/06/10 11:08:49;;;;;;;2.05;0.70;;;;;;;26.32;46.81;100723.69;2850738;81;21043;-82
2022/06/10 11:12:51;;;;;;;2.70;0.88;;;;;;;26.13;46.73;100719.16;2900413;80;20983;-82
2022/06/10 11:17:09;;;;;;;1.72;1.12;;;;;;;26.20;46.28;100726.28;2887537;81;21058;-82
2022/06/10 11:21:10;;;;;;;1.40;0.65;;;;;;;26.27;47.03;100719.43;2913134;80;21596;-82
2022/06/10 11:25:22;;;;;;;0.85;0.62;;;;;;;26.15;47.49;100722.53;2881090;81;21014;-83
2022/06/10 11:29:24;;;;;;;1.10;0.60;;;;;;;26.17;47.32;100725.91;2897207;81;21051;-82
2022/06/10 11:33:35;;;;;;;0.72;0.70;;;;;;;26.26;48.08;100715.58;2901078;81;21018;-82
2022/06/10 11:37:40;;;;;;;1.30;0.53;;;;;;;26.36;47.59;100711.82;2900030;81;21060;-82
2022/06/10 11:41:41;;;;;;;1.05;0.60;;;;;;;26.33;45.53;100716.36;2848869;80;21560;-83
2022/06/10 11:46:02;;;;;;;2.87;0.95;;;;;;;26.31;47.03;100711.66;2922041;80;21585;-83
2022/06/10 11:50:24;;;;;;;1.67;0.57;;;;;;;26.53;45.93;100699.86;2840213;81;21061;-82
2022/06/10 11:54:42;;;;;;;1.57;1.10;;;;;;;26.61;45.07;100690.02;2878984;81;21073;-82
2022/06/10 12:03:42;;;;;;;2.70;0.93;;;;;;;26.37;45.89;100700.70;2753411;84;21136;-82
2022/06/10 12:08:16;;;;;;;4.80;1.37;;;;;;;26.22;46.25;100695.55;2735760;84;21801;-82
2022/06/10 12:12:25;;;;;;;5.22;0.90;;;;;;;26.13;46.02;100685.09;2714692;84;21023;-82
2022/06/10 12:16:30;;;;;;;5.67;1.25;;;;;;;26.12;46.15;100691.09;2738655;85;21124;-83
2022/06/10 12:20:46;;;;;;;1.65;1.00;;;;;;;26.27;48.07;100673.63;2683961;87;21017;-82
2022/06/10 12:24:49;;;;;;;;;;;;;;;26.55;46.54;100681.37;2752838;84;21089;-82
2022/06/10 12:29:16;;;;;;;0.80;0.78;;;;;;;26.54;45.01;100674.77;2792579;85;20092;-83
2022/06/10 12:33:31;;;;;;;2.87;1.35;;;;;;;26.44;46.17;100672.54;2746716;85;21580;-83
2022/06/10 12:37:59;;;;;;;1.07;0.50;;;;;;;26.72;45.67;100664.41;2733961;86;21086;-83
2022/06/10 12:42:12;;;;;;;2.42;0.57;;;;;;;27.08;44.43;100672.38;2721859;85;21148;-83
2022/06/10 12:46:39;;;;;;;1.15;0.70;;;;;;;27.33;44.40;100676.95;2837905;82;21352;-82
2022/06/10 12:51:04;;;;;;;2.25;0.62;;;;;;;27.34;44.10;100671.25;2820554;82;20998;-82
2022/06/10 12:55:27;;;;;;;1.50;0.95;;;;;;;27.21;44.49;100672.24;2804797;82;20999;-83
2022/06/10 12:59:29;;;;;;;2.52;1.00;;;;;;;27.12;46.01;100672.25;2819167;83;21085;-85
2022/06/10 13:03:33;;;;;;;2.55;1.25;;;;;;;27.00;45.39;100675.42;2774582;82;21054;-85
2022/06/10 13:07:38;;;;;;;8.10;0.90;;;;;;;26.70;45.79;100666.02;2761798;82;21005;-84
2022/06/10 13:11:54;;;;;;;1.98;0.60;;;;;;;26.69;46.15;100673.91;2824957;83;20983;-84
2022/06/10 13:16:17;;;;;;;1.60;0.70;;;;;;;26.75;45.17;100674.91;2814252;83;21604;-83
2022/06/10 13:20:21;;;;;;;0.65;0.33;;;;;;;26.79;43.85;100669.30;2799479;84;21113;-84
2022/06/10 13:24:22;;;;;;;3.85;1.00;;;;;;;26.70;43.53;100669.27;2794348;83;21006;-83
2022/06/10 13:28:27;;;;;;;3.25;1.02;;;;;;;26.70;45.74;100662.45;2770091;84;21078;-84
2022/06/10 13:32:30;;;;;;;2.50;1.15;;;;;;;26.83;43.53;100656.87;2794659;83;20999;-83
2022/06/10 13:36:40;;;;;;;3.10;0.88;;;;;;;26.66;44.86;100666.98;2796819;83;21109;-84
2022/06/10 13:40:49;;;;;;;5.30;1.52;;;;;;;26.69;44.82;100651.23;2782713;84;21021;-85
2022/06/10 13:44:51;;;;;;;1.65;0.70;;;;;;;26.55;44.45;100670.47;2800919;83;20998;-86
2022/06/10 13:53:34;;;;;;;5.55;1.02;;;;;;;26.63;44.82;100657.89;2737922;84;21015;-86
2022/06/10 13:57:36;;;;;;;1.80;0.72;;;;;;;26.96;44.71;100651.02;2798096;83;21011;-86
2022/06/10 14:01:40;;;;;;;2.37;1.10;;;;;;;27.17;44.09;100655.17;2822630;83;21053;-86
2022/06/10 14:05:42;;;;;;;1.40;0.70;;;;;;;27.25;43.28;100652.67;2836007;83;21002;-84
2022/06/10 14:09:46;;;;;;;3.85;1.12;;;;;;;27.46;45.51;100653.55;2756355;84;21042;-86
2022/06/10 14:13:51;;;;;;;1.30;1.13;;;;;;;27.55;43.81;100651.92;2815022;83;21073;-85
2022/06/10 14:18:04;;;;;;;1.62;1.12;;;;;;;27.60;44.51;100646.59;2789710;84;21085;-87
2022/06/10 14:22:13;;;;;;;2.95;0.85;;;;;;;27.69;42.89;100644.37;2820377;83;21099;-85
2022/06/10 14:26:24;;;;;;;24.15;1.75;;;;;;;27.82;42.91;100636.00;2803086;83;21022;-84
2022/06/10 14:30:40;;;;;;;3.15;1.25;;;;;;;27.90;43.04;100645.22;2775652;83;21016;-85
2022/06/10 14:34:46;;;;;;;4.05;1.15;;;;;;;27.88;42.39;100642.41;2774926;82;21045;-86
2022/06/10 14:39:08;;;;;;;3.67;0.93;;;;;;;27.86;42.74;100643.18;2804417;83;21018;-86
2022/06/10 14:43:22;;;;;;;2.92;0.93;;;;;;;27.72;42.85;100632.46;2795638;83;21023;-86
2022/06/10 14:47:29;;;;;;;1.85;0.80;;;;;;;27.60;42.71;100635.66;2809917;82;20999;-86
2022/06/10 14:51:41;;;;;;;2.85;1.80;;;;;;;27.72;43.73;100620.68;2833277;83;21057;-85
2022/06/10 14:55:47;;;;;;;2.70;1.50;;;;;;;27.78;43.66;100624.69;2819560;83;21081;-86
2022/06/10 14:59:50;;;;;;;2.17;1.17;;;;;;;27.91;43.14;100632.41;2799194;84;21042;-84
2022/06/10 15:03:51;;;;;;;1.72;1.10;;;;;;;27.98;42.92;100627.66;2816939;83;21034;-85
2022/06/10 15:07:52;;;;;;;29.35;5.55;;;;;;;28.01;43.77;100625.81;2821694;83;21018;-84
2022/06/10 15:11:56;;;;;;;1.65;1.35;;;;;;;28.00;43.36;100620.57;2762535;84;21011;-85
2022/06/10 15:15:57;;;;;;;2.58;1.40;;;;;;;27.97;41.99;100619.16;2763941;83;21090;-83
2022/06/10 15:19:58;;;;;;;2.87;1.25;;;;;;;27.92;42.69;100621.22;2778587;83;21038;-83
2022/06/10 15:24:01;;;;;;;3.02;1.70;;;;;;;27.91;42.61;100618.73;2769971;84;21023;-82
2022/06/10 15:28:02;;;;;;;26.57;1.72;;;;;;;28.01;42.07;100617.62;2821770;83;20990;-83
2022/06/10 15:32:08;;;;;;;4.62;1.25;;;;;;;28.03;42.40;100616.03;2833969;83;21038;-84
2022/06/10 15:40:46;;;;;;;2.62;1.42;;;;;;;28.28;42.57;100621.86;2819448;83;21057;-84
2022/06/10 15:44:47;;;;;;;2.30;1.02;;;;;;;27.80;41.75;100621.19;2780752;83;21050;-84
2022/06/10 15:48:50;;;;;;;2.47;1.40;;;;;;;27.72;41.98;100615.22;2833429;83;21522;-83
2022/06/10 15:52:52;;;;;;;4.70;1.55;;;;;;;27.62;42.78;100615.77;2820592;81;20979;-84
2022/06/10 15:57:09;;;;;;;3.12;1.00;;;;;;;27.18;42.99;100611.27;2799378;83;21073;-84
2022/06/10 16:01:13;;;;;;;2.85;1.05;;;;;;;26.92;43.71;100618.72;2829638;82;21062;-84
2022/06/10 16:05:22;;;;;;;2.77;1.02;;;;;;;26.73;43.26;100621.91;2816722;84;21034;-84
2022/06/10 16:09:23;;;;;;;2.15;0.90;;;;;;;26.80;43.64;100612.30;2855712;80;21014;-84
2022/06/10 16:13:29;;;;;;;1.10;1.00;;;;;;;26.87;43.60;100624.00;2858844;81;21316;-83
2022/06/10 16:17:31;;;;;;;2.10;1.20;;;;;;;26.86;43.38;100616.05;2914823;80;21073;-83
2022/06/10 16:21:33;;;;;;;5.17;1.40;;;;;;;26.78;42.76;100615.24;2870078;81;20997;-83
2022/06/10 16:25:34;;;;;;;3.50;1.82;;;;;;;26.80;43.64;100615.84;2916040;80;21010;-84
2022/06/10 16:29:35;;;;;;;2.55;1.62;;;;;;;26.71;43.81;100606.82;2884681;80;21029;-84
2022/06/10 16:33:36;;;;;;;5.37;1.15;;;;;;;26.52;42.80;100610.88;2920035;80;21033;-83
2022/06/10 16:37:37;;;;;;;3.55;1.80;;;;;;;26.41;43.30;100611.63;2921892;81;21061;-83
2022/06/10 16:41:46;;;;;;;2.50;1.20;;;;;;;26.20;44.18;100618.60;2907800;81;21072;-83
2022/06/10 16:45:49;;;;;;;1.62;0.82;;;;;;;26.04;44.55;100624.56;2886966;81;21509;-83
2022/06/10 16:49:52;;;;;;;7.33;1.98;;;;;;;25.94;44.94;100624.53;2877039;81;21118;-82
2022/06/10 16:53:54;;;;;;;2.15;1.20;;;;;;;25.91;44.40;100617.31;2865599;81;21385;-84
2022/06/10 16:57:58;;;;;;;1.42;1.02;;;;;;;25.79;44.42;100619.40;2861945;82;21026;-84
2022/06/10 17:02:05;;;;;;;2.42;1.57;;;;;;;25.74;44.88;100617.02;2875031;81;21066;-83
2022/06/10 17:06:06;;;;;;;1.98;0.98;;;;;;;25.68;44.75;100621.44;2864484;81;21022;-83
2022/06/10 17:10:08;;;;;;;3.17;1.20;;;;;;;25.52;44.62;100623.61;2858742;82;21565;-84
2022/06/10 17:14:26;;;;;;;2.42;1.10;;;;;;;25.48;45.44;100631.91;2880178;81;21101;-83
2022/06/10 17:18:30;;;;;;;1.85;0.90;;;;;;;25.42;45.63;100627.31;2878280;81;20959;-83
2022/06/10 17:22:31;;;;;;;6.83;2.05;;;;;;;25.31;45.70;100629.34;2855946;82;21022;-83
2022/06/10 17:26:43;;;;;;;1.98;1.20;;;;;;;25.23;45.44;100633.98;2873226;81;21121;-84
2022/06/10 17:30:49;;;;;;;8.88;1.50;;;;;;;25.20;45.88;100631.70;2880421;81;20987;-83
2022/06/10 17:34:54;;;;;;;2.15;1.45;;;;;;;25.11;45.52;100634.33;2828852;83;21030;-83
2022/06/10 17:38:58;;;;;;;1.25;0.80;;;;;;;24.99;44.87;100642.31;2852571;82;21018;-84
2022/06/10 17:42:59;;;;;;;2.92;1.40;;;;;;;24.88;45.51;100645.17;2830410;81;21065;-83
2022/06/10 17:47:05;;;;;;;5.17;1.47;;;;;;;24.79;45.94;100655.98;2829074;82;21088;-83
2022/06/10 17:51:11;;;;;;;1.20;1.07;;;;;;;24.68;46.33;100653.34;2801498;81;21076;-84
2022/06/10 17:55:13;;;;;;;2.72;1.00;;;;;;;24.55;46.25;100651.98;2881250;81;21034;-83
2022/06/10 17:59:37;;;;;;;4.05;1.70;;;;;;;24.44;46.26;100664.33;2868834;81;21009;-84
2022/06/10 18:03:38;;;;;;;1.52;1.20;;;;;;;24.34;46.95;100666.92;2860316;81;21045;-84
2022/06/10 18:07:40;;;;;;;8.73;1.05;;;;;;;24.20;47.20;100662.00;2859883;81;21036;-83
2022/06/10 18:11:45;;;;;;;2.35;1.10;;;;;;;24.09;47.90;100666.17;2848574;81;21079;-83
2022/06/10 18:15:47;;;;;;;4.58;1.42;;;;;;;24.01;48.35;100669.56;2843647;82;21041;-83
2022/06/10 18:19:48;;;;;;;6.22;1.70;;;;;;;23.92;48.54;100674.34;2795915;84;21040;-83
2022/06/10 18:23:51;;;;;;;1.55;1.02;;;;;;;23.76;48.38;100670.95;2844417;81;21026;-84
2022/06/10 18:27:54;;;;;;;1.60;0.90;;;;;;;23.67;48.72;100667.58;2869760;81;21580;-82
2022/06/10 18:32:25;;;;;;;2.87;1.30;;;;;;;23.58;49.17;100669.32;2841479;82;21033;-83
2022/06/10 18:36:26;;;;;;;3.52;1.15;;;;;;;23.46;49.33;100669.06;2841369;82;21132;-83
2022/06/10 18:40:31;;;;;;;3.83;0.98;;;;;;;23.35;49.97;100671.84;2833034;81;21044;-83
2022/06/10 18:44:32;;;;;;;;;;;;;;;23.21;50.44;100673.62;2849425;82;21018;-85
2022/06/10 18:48:39;;;;;;;5.60;1.72;;;;;;;23.05;51.95;100686.99;2907750;81;20116;-87
2022/06/10 18:52:40;;;;;;;3.60;1.35;;;;;;;22.89;52.31;100683.55;2849699;81;21214;-85
2022/06/10 18:56:44;;;;;;;7.75;2.12;;;;;;;22.70;52.68;100686.95;2892301;81;21045;-85
2022/06/10 19:00:49;;;;;;;5.65;2.42;;;;;;;22.50;53.49;100697.96;2854443;81;21034;-84
2022/06/10 19:04:52;;;;;;;6.60;2.35;;;;;;;22.19;54.87;100699.58;2876525;82;21006;-85
2022/06/10 19:08:55;;;;;;;6.80;2.15;;;;;;;21.92;55.35;100707.43;2868619;81;21029;-86
2022/06/10 19:12:57;;;;;;;11.00;2.67;;;;;;;21.70;55.93;100710.09;2848821;82;21038;-88
2022/06/10 19:17:07;;;;;;;7.12;2.50;;;;;;;21.51;56.07;100711.47;2856578;81;21073;-91
2022/06/10 19:21:34;;;;;;;4.60;2.22;;;;;;;21.30;56.83;100723.06;2796415;83;21085;-91
2022/06/10 19:30:39;;;;;;;138.80;23.10;;;;;;;20.87;57.55;100739.88;2785495;84;21179;-84
2022/06/10 19:39:48;;;;;;;3.50;2.27;;;;;;;20.51;58.07;100760.23;2826818;82;21050;-84
2022/06/10 19:48:20;;;;;;;5.78;3.15;;;;;;;20.17;59.05;100760.11;2812332;84;21369;-82
2022/06/10 19:52:28;;;;;;;10.65;3.50;;;;;;;19.97;59.69;100763.25;2778595;82;21691;-83
2022/06/10 19:56:34;;;;;;;6.72;2.70;;;;;;;19.80;60.51;100770.56;2818727;82;21097;-81